sensor_id;sensor_type;location;lat;lon;timestamp;pressure;altitude;pressure_sealevel;temperature;humidity
54248;BME280;40161;39.768;2.722;2023-02-26T00:00:14;100050.84;;;5.74;100.00
54248;BME280;40161;39.768;2.722;2023-02-26T00:02:41;100062.53;;;5.75;100.00
54248;BME280;40161;39.768;2.722;2023-02-26T00:05:08;100067.81;;;5.83;100.00
54248;BME280;40161;39.768;2.722;2023-02-26T00:07:34;100060.09;;;5.85;100.00
54248;BME280;40161;39.768;2.722;2023-02-26T00:09:59;100065.25;;;5.75;100.00
54248;BME280;40161;39.768;2.722;2023-02-26T00:12:29;100054.56;;;5.82;100.00
54248;BME280;40161;39.768;2.722;2023-02-26T00:14:55;100051.34;;;6.24;100.00
54248;BME280;40161;39.768;2.722;2023-02-26T00:19:55;100058.59;;;5.88;100.00
54248;BME280;40161;39.768;2.722;2023-02-26T00:22:21;100052.84;;;6.21;100.00
54248;BME280;40161;39.768;2.722;2023-02-26T00:24:47;100061.63;;;6.30;97.63
54248;BME280;40161;39.768;2.722;2023-02-26T00:27:12;100050.38;;;6.16;96.53
54248;BME280;40161;39.768;2.722;2023-02-26T00:29:38;100052.34;;;5.87;98.07
54248;BME280;40161;39.768;2.722;2023-02-26T00:32:05;100048.44;;;5.57;99.00
54248;BME280;40161;39.768;2.722;2023-02-26T00:34:31;100051.34;;;5.64;100.00
54248;BME280;40161;39.768;2.722;2023-02-26T00:41:56;100052.00;;;5.73;100.00
54248;BME280;40161;39.768;2.722;2023-02-26T00:44:22;100051.38;;;5.80;100.00
54248;BME280;40161;39.768;2.722;2023-02-26T00:52:02;100056.88;;;6.11;100.00
54248;BME280;40161;39.768;2.722;2023-02-26T00:54:30;100032.88;;;6.01;98.10
54248;BME280;40161;39.768;2.722;2023-02-26T00:56:57;100047.47;;;5.93;98.16
54248;BME280;40161;39.768;2.722;2023-02-26T00:59:24;100046.22;;;5.46;99.28
54248;BME280;40161;39.768;2.722;2023-02-26T01:01:50;100057.47;;;5.45;100.00
54248;BME280;40161;39.768;2.722;2023-02-26T01:04:18;100051.66;;;5.46;100.00
54248;BME280;40161;39.768;2.722;2023-02-26T01:06:48;100063.56;;;5.54;100.00
54248;BME280;40161;39.768;2.722;2023-02-26T01:11:48;100072.56;;;5.42;100.00
54248;BME280;40161;39.768;2.722;2023-02-26T01:14:14;100063.16;;;5.40;100.00
54248;BME280;40161;39.768;2.722;2023-02-26T01:20:02;100068.28;;;5.57;100.00
54248;BME280;40161;39.768;2.722;2023-02-26T01:22:36;100047.09;;;5.79;100.00
54248;BME280;40161;39.768;2.722;2023-02-26T01:25:10;100047.47;;;5.93;100.00
54248;BME280;40161;39.768;2.722;2023-02-26T01:27:36;100056.06;;;5.95;100.00
54248;BME280;40161;39.768;2.722;2023-02-26T01:30:04;100055.69;;;5.81;100.00
54248;BME280;40161;39.768;2.722;2023-02-26T01:35:12;100035.06;;;5.80;100.00
54248;BME280;40161;39.768;2.722;2023-02-26T01:37:52;100054.56;;;5.82;100.00
54248;BME280;40161;39.768;2.722;2023-02-26T01:42:58;100037.78;;;5.80;100.00
54248;BME280;40161;39.768;2.722;2023-02-26T01:45:38;100018.09;;;5.70;100.00
54248;BME280;40161;39.768;2.722;2023-02-26T01:48:35;100028.13;;;6.14;100.00
54248;BME280;40161;39.768;2.722;2023-02-26T01:51:01;100027.53;;;6.21;100.00
54248;BME280;40161;39.768;2.722;2023-02-26T01:53:27;100014.97;;;6.00;100.00
54248;BME280;40161;39.768;2.722;2023-02-26T01:55:59;100016.47;;;6.13;100.00
54248;BME280;40161;39.768;2.722;2023-02-26T01:58:28;100013.56;;;6.06;100.00
54248;BME280;40161;39.768;2.722;2023-02-26T02:00:55;99991.06;;;5.93;100.00
54248;BME280;40161;39.768;2.722;2023-02-26T02:03:23;99999.16;;;6.06;100.00
54248;BME280;40161;39.768;2.722;2023-02-26T02:05:54;99993.78;;;5.93;100.00
54248;BME280;40161;39.768;2.722;2023-02-26T02:08:21;99993.97;;;6.01;100.00
54248;BME280;40161;39.768;2.722;2023-02-26T02:10:48;100003.97;;;6.12;100.00
54248;BME280;40161;39.768;2.722;2023-02-26T02:16:08;100000.06;;;6.45;100.00
54248;BME280;40161;39.768;2.722;2023-02-26T02:18:52;99989.09;;;6.26;100.00
54248;BME280;40161;39.768;2.722;2023-02-26T02:21:40;99983.13;;;6.55;100.00
54248;BME280;40161;39.768;2.722;2023-02-26T02:24:27;99987.34;;;6.53;100.00
54248;BME280;40161;39.768;2.722;2023-02-26T02:29:49;99983.22;;;6.98;100.00
54248;BME280;40161;39.768;2.722;2023-02-26T02:32:29;99971.38;;;6.71;100.00
54248;BME280;40161;39.768;2.722;2023-02-26T02:35:19;99976.47;;;6.53;100.00
54248;BME280;40161;39.768;2.722;2023-02-26T02:40:42;99969.94;;;6.57;100.00
54248;BME280;40161;39.768;2.722;2023-02-26T02:43:16;99960.41;;;6.67;100.00
54248;BME280;40161;39.768;2.722;2023-02-26T02:45:44;99962.69;;;6.46;100.00
54248;BME280;40161;39.768;2.722;2023-02-26T02:50:47;99955.53;;;6.22;100.00
54248;BME280;40161;39.768;2.722;2023-02-26T02:53:23;99949.13;;;6.14;100.00
54248;BME280;40161;39.768;2.722;2023-02-26T02:56:08;99956.69;;;6.40;100.00
54248;BME280;40161;39.768;2.722;2023-02-26T02:58:40;99949.38;;;6.09;100.00
54248;BME280;40161;39.768;2.722;2023-02-26T03:01:09;99953.09;;;6.16;100.00
54248;BME280;40161;39.768;2.722;2023-02-26T03:03:43;99951.84;;;6.30;100.00
54248;BME280;40161;39.768;2.722;2023-02-26T03:06:09;99956.53;;;6.13;100.00
54248;BME280;40161;39.768;2.722;2023-02-26T03:08:38;99946.00;;;5.96;100.00
54248;BME280;40161;39.768;2.722;2023-02-26T03:11:06;99961.28;;;6.01;100.00
54248;BME280;40161;39.768;2.722;2023-02-26T03:13:32;99959.19;;;6.29;100.00
54248;BME280;40161;39.768;2.722;2023-02-26T03:23:59;99950.34;;;6.52;100.00
54248;BME280;40161;39.768;2.722;2023-02-26T03:27:10;99957.03;;;6.54;100.00
54248;BME280;40161;39.768;2.722;2023-02-26T03:32:20;99951.56;;;6.19;100.00
54248;BME280;40161;39.768;2.722;2023-02-26T03:34:55;99943.66;;;6.49;100.00
54248;BME280;40161;39.768;2.722;2023-02-26T03:37:47;99953.66;;;6.61;100.00
54248;BME280;40161;39.768;2.722;2023-02-26T03:40:36;99946.00;;;6.31;100.00
54248;BME280;40161;39.768;2.722;2023-02-26T03:43:10;99931.94;;;5.94;100.00
54248;BME280;40161;39.768;2.722;2023-02-26T03:45:38;99942.72;;;5.90;100.00
54248;BME280;40161;39.768;2.722;2023-02-26T03:48:09;99944.59;;;6.02;100.00
54248;BME280;40161;39.768;2.722;2023-02-26T03:50:41;99935.63;;;5.70;100.00
54248;BME280;40161;39.768;2.722;2023-02-26T03:53:11;99944.41;;;5.79;100.00
54248;BME280;40161;39.768;2.722;2023-02-26T03:55:46;99933.13;;;6.12;100.00
54248;BME280;40161;39.768;2.722;2023-02-26T03:58:13;99944.94;;;6.01;100.00
54248;BME280;40161;39.768;2.722;2023-02-26T04:00:41;99943.78;;;5.70;100.00
54248;BME280;40161;39.768;2.722;2023-02-26T04:03:20;99932.03;;;5.82;100.00
54248;BME280;40161;39.768;2.722;2023-02-26T04:05:50;99916.53;;;6.02;100.00
54248;BME280;40161;39.768;2.722;2023-02-26T04:08:17;99933.88;;;5.93;100.00
54248;BME280;40161;39.768;2.722;2023-02-26T04:13:11;99925.19;;;5.72;100.00
54248;BME280;40161;39.768;2.722;2023-02-26T04:15:37;99920.44;;;5.53;100.00
54248;BME280;40161;39.768;2.722;2023-02-26T04:18:03;99920.25;;;5.62;100.00
54248;BME280;40161;39.768;2.722;2023-02-26T04:20:28;99927.38;;;5.51;100.00
54248;BME280;40161;39.768;2.722;2023-02-26T04:22:54;99932.97;;;5.89;100.00
54248;BME280;40161;39.768;2.722;2023-02-26T04:25:19;99942.91;;;5.82;100.00
54248;BME280;40161;39.768;2.722;2023-02-26T04:27:45;99919.66;;;5.37;100.00
54248;BME280;40161;39.768;2.722;2023-02-26T04:30:11;99919.81;;;5.76;100.00
54248;BME280;40161;39.768;2.722;2023-02-26T04:32:36;99935.50;;;6.14;100.00
54248;BME280;40161;39.768;2.722;2023-02-26T04:35:02;99936.25;;;5.79;100.00
54248;BME280;40161;39.768;2.722;2023-02-26T04:37:28;99930.00;;;5.47;100.00
54248;BME280;40161;39.768;2.722;2023-02-26T04:39:53;99934.75;;;5.82;100.00
54248;BME280;40161;39.768;2.722;2023-02-26T04:42:19;99938.97;;;5.79;100.00
54248;BME280;40161;39.768;2.722;2023-02-26T04:44:44;99943.63;;;5.79;100.00
54248;BME280;40161;39.768;2.722;2023-02-26T04:47:10;99947.38;;;5.90;100.00
54248;BME280;40161;39.768;2.722;2023-02-26T04:49:35;99937.75;;;5.92;100.00
54248;BME280;40161;39.768;2.722;2023-02-26T04:52:01;99938.69;;;5.84;100.00
54248;BME280;40161;39.768;2.722;2023-02-26T04:54:26;99940.81;;;6.07;100.00
54248;BME280;40161;39.768;2.722;2023-02-26T04:56:52;99945.81;;;6.40;99.10
54248;BME280;40161;39.768;2.722;2023-02-26T04:59:17;99959.16;;;6.10;98.74
54248;BME280;40161;39.768;2.722;2023-02-26T05:01:43;99949.06;;;5.79;100.00
54248;BME280;40161;39.768;2.722;2023-02-26T05:04:09;99930.72;;;5.76;100.00
54248;BME280;40161;39.768;2.722;2023-02-26T05:06:34;99925.59;;;6.06;100.00
54248;BME280;40161;39.768;2.722;2023-02-26T05:09:00;99942.03;;;6.09;100.00
54248;BME280;40161;39.768;2.722;2023-02-26T05:11:25;99939.75;;;5.80;100.00
54248;BME280;40161;39.768;2.722;2023-02-26T05:13:51;99933.94;;;6.13;100.00
54248;BME280;40161;39.768;2.722;2023-02-26T05:16:16;99933.72;;;6.22;100.00
54248;BME280;40161;39.768;2.722;2023-02-26T05:18:42;99928.75;;;6.08;100.00
54248;BME280;40161;39.768;2.722;2023-02-26T05:21:07;99932.47;;;6.00;100.00
54248;BME280;40161;39.768;2.722;2023-02-26T05:23:33;99931.84;;;6.06;100.00
54248;BME280;40161;39.768;2.722;2023-02-26T05:25:59;99914.44;;;5.95;100.00
54248;BME280;40161;39.768;2.722;2023-02-26T05:28:27;99915.06;;;6.04;100.00
54248;BME280;40161;39.768;2.722;2023-02-26T05:30:55;99930.03;;;6.30;100.00
54248;BME280;40161;39.768;2.722;2023-02-26T05:33:20;99927.88;;;6.20;100.00
54248;BME280;40161;39.768;2.722;2023-02-26T05:35:46;99925.31;;;6.11;100.00
54248;BME280;40161;39.768;2.722;2023-02-26T05:38:13;99905.84;;;5.93;100.00
54248;BME280;40161;39.768;2.722;2023-02-26T05:40:39;99923.06;;;5.97;100.00
54248;BME280;40161;39.768;2.722;2023-02-26T05:43:04;99921.97;;;6.17;100.00
54248;BME280;40161;39.768;2.722;2023-02-26T05:45:30;99929.69;;;6.51;100.00
54248;BME280;40161;39.768;2.722;2023-02-26T05:47:55;99914.94;;;6.16;100.00
54248;BME280;40161;39.768;2.722;2023-02-26T05:50:21;99922.59;;;6.11;100.00
54248;BME280;40161;39.768;2.722;2023-02-26T05:52:47;99904.00;;;5.97;100.00
54248;BME280;40161;39.768;2.722;2023-02-26T05:55:12;99920.03;;;6.18;100.00
54248;BME280;40161;39.768;2.722;2023-02-26T05:57:38;99929.94;;;6.26;100.00
54248;BME280;40161;39.768;2.722;2023-02-26T06:00:05;99924.25;;;6.15;100.00
54248;BME280;40161;39.768;2.722;2023-02-26T06:02:31;99906.47;;;6.22;100.00
54248;BME280;40161;39.768;2.722;2023-02-26T06:04:56;99926.00;;;6.43;100.00
54248;BME280;40161;39.768;2.722;2023-02-26T06:07:22;99920.22;;;6.83;100.00
54248;BME280;40161;39.768;2.722;2023-02-26T06:09:48;99928.38;;;7.03;98.96
54248;BME280;40161;39.768;2.722;2023-02-26T06:12:14;99911.69;;;6.85;98.75
54248;BME280;40161;39.768;2.722;2023-02-26T06:14:40;99925.38;;;6.69;99.84
54248;BME280;40161;39.768;2.722;2023-02-26T06:17:05;99927.09;;;6.77;100.00
54248;BME280;40161;39.768;2.722;2023-02-26T06:19:32;99927.97;;;6.62;100.00
54248;BME280;40161;39.768;2.722;2023-02-26T06:21:57;99932.50;;;6.93;100.00
54248;BME280;40161;39.768;2.722;2023-02-26T06:24:23;99920.44;;;6.75;100.00
54248;BME280;40161;39.768;2.722;2023-02-26T06:26:49;99933.94;;;6.68;100.00
54248;BME280;40161;39.768;2.722;2023-02-26T06:29:14;99934.38;;;6.89;100.00
54248;BME280;40161;39.768;2.722;2023-02-26T06:31:42;99940.66;;;6.93;100.00
54248;BME280;40161;39.768;2.722;2023-02-26T06:34:08;99939.03;;;6.88;100.00
54248;BME280;40161;39.768;2.722;2023-02-26T06:36:33;99942.28;;;6.75;100.00
54248;BME280;40161;39.768;2.722;2023-02-26T06:38:59;99931.28;;;6.71;100.00
54248;BME280;40161;39.768;2.722;2023-02-26T06:41:24;99932.41;;;6.70;100.00
54248;BME280;40161;39.768;2.722;2023-02-26T06:43:50;99943.25;;;6.66;100.00
54248;BME280;40161;39.768;2.722;2023-02-26T06:46:15;99937.78;;;7.05;100.00
54248;BME280;40161;39.768;2.722;2023-02-26T06:48:41;99922.72;;;6.92;100.00
54248;BME280;40161;39.768;2.722;2023-02-26T06:51:06;99930.09;;;6.92;100.00
54248;BME280;40161;39.768;2.722;2023-02-26T06:53:32;99938.44;;;6.99;100.00
54248;BME280;40161;39.768;2.722;2023-02-26T06:55:57;99935.03;;;7.25;100.00
54248;BME280;40161;39.768;2.722;2023-02-26T06:58:23;99940.16;;;7.07;100.00
54248;BME280;40161;39.768;2.722;2023-02-26T07:00:49;99939.66;;;7.01;100.00
54248;BME280;40161;39.768;2.722;2023-02-26T07:03:16;99946.41;;;7.07;100.00
54248;BME280;40161;39.768;2.722;2023-02-26T07:05:44;99955.81;;;7.10;100.00
54248;BME280;40161;39.768;2.722;2023-02-26T07:08:10;99943.72;;;7.30;100.00
54248;BME280;40161;39.768;2.722;2023-02-26T07:10:36;99945.34;;;7.35;100.00
54248;BME280;40161;39.768;2.722;2023-02-26T07:13:02;99945.84;;;7.41;100.00
54248;BME280;40161;39.768;2.722;2023-02-26T07:15:28;99924.84;;;7.45;100.00
54248;BME280;40161;39.768;2.722;2023-02-26T07:17:54;99950.03;;;7.57;100.00
54248;BME280;40161;39.768;2.722;2023-02-26T07:20:20;99949.59;;;7.55;100.00
54248;BME280;40161;39.768;2.722;2023-02-26T07:22:47;99947.44;;;7.65;100.00
54248;BME280;40161;39.768;2.722;2023-02-26T07:25:13;99946.75;;;7.48;100.00
54248;BME280;40161;39.768;2.722;2023-02-26T07:27:39;99953.56;;;7.58;100.00
54248;BME280;40161;39.768;2.722;2023-02-26T07:30:06;99955.41;;;7.77;100.00
54248;BME280;40161;39.768;2.722;2023-02-26T07:32:32;99940.94;;;7.99;100.00
54248;BME280;40161;39.768;2.722;2023-02-26T07:34:57;99945.72;;;8.06;100.00
54248;BME280;40161;39.768;2.722;2023-02-26T07:37:24;99936.16;;;7.93;100.00
54248;BME280;40161;39.768;2.722;2023-02-26T07:39:50;99930.69;;;7.93;100.00
54248;BME280;40161;39.768;2.722;2023-02-26T07:42:15;99948.31;;;7.95;100.00
54248;BME280;40161;39.768;2.722;2023-02-26T07:44:41;99943.50;;;7.89;100.00
54248;BME280;40161;39.768;2.722;2023-02-26T07:47:08;99935.03;;;7.97;100.00
54248;BME280;40161;39.768;2.722;2023-02-26T07:49:34;99940.19;;;8.29;100.00
54248;BME280;40161;39.768;2.722;2023-02-26T07:52:00;99945.34;;;8.61;100.00
54248;BME280;40161;39.768;2.722;2023-02-26T07:54:25;99940.28;;;8.63;100.00
54248;BME280;40161;39.768;2.722;2023-02-26T07:56:51;99922.44;;;8.42;100.00
54248;BME280;40161;39.768;2.722;2023-02-26T07:59:17;99943.56;;;8.45;100.00
54248;BME280;40161;39.768;2.722;2023-02-26T08:01:42;99953.22;;;8.66;100.00
54248;BME280;40161;39.768;2.722;2023-02-26T08:04:08;99950.44;;;8.62;100.00
54248;BME280;40161;39.768;2.722;2023-02-26T08:06:33;99955.28;;;8.46;100.00
54248;BME280;40161;39.768;2.722;2023-02-26T08:09:00;99969.75;;;8.46;100.00
54248;BME280;40161;39.768;2.722;2023-02-26T08:11:25;99950.72;;;8.53;100.00
54248;BME280;40161;39.768;2.722;2023-02-26T08:13:52;99921.81;;;8.26;100.00
54248;BME280;40161;39.768;2.722;2023-02-26T08:16:18;99964.41;;;8.53;100.00
54248;BME280;40161;39.768;2.722;2023-02-26T08:18:43;99966.25;;;8.76;100.00
54248;BME280;40161;39.768;2.722;2023-02-26T08:21:09;99973.25;;;8.73;100.00
54248;BME280;40161;39.768;2.722;2023-02-26T08:23:36;99965.69;;;8.63;100.00
54248;BME280;40161;39.768;2.722;2023-02-26T08:26:09;99954.88;;;8.74;100.00
54248;BME280;40161;39.768;2.722;2023-02-26T08:28:35;99975.03;;;8.92;100.00
54248;BME280;40161;39.768;2.722;2023-02-26T08:31:02;99967.50;;;9.16;100.00
54248;BME280;40161;39.768;2.722;2023-02-26T08:33:28;99961.09;;;9.04;100.00
54248;BME280;40161;39.768;2.722;2023-02-26T08:35:54;99968.50;;;9.00;100.00
54248;BME280;40161;39.768;2.722;2023-02-26T08:38:24;99969.53;;;9.22;100.00
54248;BME280;40161;39.768;2.722;2023-02-26T08:40:49;99963.28;;;9.25;99.89
54248;BME280;40161;39.768;2.722;2023-02-26T08:43:17;99957.47;;;9.31;99.95
54248;BME280;40161;39.768;2.722;2023-02-26T08:45:44;99963.06;;;9.41;99.14
54248;BME280;40161;39.768;2.722;2023-02-26T08:48:10;99954.59;;;9.54;96.19
54248;BME280;40161;39.768;2.722;2023-02-26T08:50:38;99955.84;;;9.67;93.46
54248;BME280;40161;39.768;2.722;2023-02-26T08:53:05;99965.00;;;9.82;93.81
54248;BME280;40161;39.768;2.722;2023-02-26T08:55:31;99956.78;;;9.82;92.30
54248;BME280;40161;39.768;2.722;2023-02-26T08:57:57;99972.81;;;9.83;91.02
54248;BME280;40161;39.768;2.722;2023-02-26T09:00:22;99975.56;;;9.83;91.64
54248;BME280;40161;39.768;2.722;2023-02-26T09:02:48;99976.38;;;9.87;88.21
54248;BME280;40161;39.768;2.722;2023-02-26T09:05:14;99972.59;;;10.03;85.54
54248;BME280;40161;39.768;2.722;2023-02-26T09:07:40;99974.78;;;10.31;84.02
54248;BME280;40161;39.768;2.722;2023-02-26T09:10:08;99976.47;;;10.46;82.58
54248;BME280;40161;39.768;2.722;2023-02-26T09:12:34;99938.84;;;10.50;81.14
54248;BME280;40161;39.768;2.722;2023-02-26T09:15:04;99964.38;;;10.61;79.17
54248;BME280;40161;39.768;2.722;2023-02-26T09:17:30;99967.50;;;10.60;78.65
54248;BME280;40161;39.768;2.722;2023-02-26T09:19:56;99967.91;;;10.65;78.07
54248;BME280;40161;39.768;2.722;2023-02-26T09:22:22;99975.84;;;10.78;76.90
54248;BME280;40161;39.768;2.722;2023-02-26T09:24:48;99966.34;;;10.64;74.63
54248;BME280;40161;39.768;2.722;2023-02-26T09:27:13;99973.03;;;10.67;76.07
54248;BME280;40161;39.768;2.722;2023-02-26T09:29:39;99961.63;;;10.58;75.17
54248;BME280;40161;39.768;2.722;2023-02-26T09:32:06;99973.41;;;10.65;74.21
54248;BME280;40161;39.768;2.722;2023-02-26T09:34:37;99971.41;;;10.59;75.89
54248;BME280;40161;39.768;2.722;2023-02-26T09:37:04;99982.81;;;10.64;74.81
54248;BME280;40161;39.768;2.722;2023-02-26T09:39:31;99973.84;;;10.75;74.60
54248;BME280;40161;39.768;2.722;2023-02-26T09:42:00;99974.63;;;10.72;72.31
54248;BME280;40161;39.768;2.722;2023-02-26T09:44:31;99965.22;;;10.80;72.14
54248;BME280;40161;39.768;2.722;2023-02-26T09:47:06;99975.06;;;10.81;72.51
54248;BME280;40161;39.768;2.722;2023-02-26T09:52:39;99979.41;;;10.92;72.34
54248;BME280;40161;39.768;2.722;2023-02-26T09:55:16;99959.03;;;10.97;72.45
54248;BME280;40161;39.768;2.722;2023-02-26T09:57:46;99979.88;;;11.12;71.11
54248;BME280;40161;39.768;2.722;2023-02-26T10:00:26;99983.44;;;11.20;70.52
54248;BME280;40161;39.768;2.722;2023-02-26T10:03:04;99975.22;;;11.34;70.83
54248;BME280;40161;39.768;2.722;2023-02-26T10:08:35;99977.16;;;11.23;68.71
54248;BME280;40161;39.768;2.722;2023-02-26T10:13:46;99987.00;;;11.35;67.99
54248;BME280;40161;39.768;2.722;2023-02-26T10:16:19;99987.44;;;11.51;66.95
54248;BME280;40161;39.768;2.722;2023-02-26T10:18:53;99982.34;;;11.57;67.49
54248;BME280;40161;39.768;2.722;2023-02-26T10:21:26;99981.16;;;11.61;67.16
54248;BME280;40161;39.768;2.722;2023-02-26T10:23:56;99974.03;;;11.35;66.81
54248;BME280;40161;39.768;2.722;2023-02-26T10:26:26;99953.66;;;11.36;66.74
54248;BME280;40161;39.768;2.722;2023-02-26T10:36:29;99976.06;;;11.56;65.97
54248;BME280;40161;39.768;2.722;2023-02-26T10:39:22;99985.84;;;11.43;65.77
54248;BME280;40161;39.768;2.722;2023-02-26T10:41:51;99974.88;;;11.43;65.54
54248;BME280;40161;39.768;2.722;2023-02-26T10:44:32;99979.97;;;11.55;66.27
54248;BME280;40161;39.768;2.722;2023-02-26T10:47:16;99976.84;;;11.50;65.56
54248;BME280;40161;39.768;2.722;2023-02-26T10:49:53;99977.22;;;11.55;66.04
54248;BME280;40161;39.768;2.722;2023-02-26T10:52:23;99970.16;;;11.58;65.30
54248;BME280;40161;39.768;2.722;2023-02-26T10:57:39;99968.97;;;11.52;64.18
54248;BME280;40161;39.768;2.722;2023-02-26T11:00:15;99963.47;;;11.62;64.49
54248;BME280;40161;39.768;2.722;2023-02-26T11:02:44;99961.56;;;11.67;63.64
54248;BME280;40161;39.768;2.722;2023-02-26T11:07:48;99958.41;;;11.72;62.69
54248;BME280;40161;39.768;2.722;2023-02-26T11:10:21;99965.88;;;12.00;62.28
54248;BME280;40161;39.768;2.722;2023-02-26T11:12:47;99962.34;;;11.85;62.93
54248;BME280;40161;39.768;2.722;2023-02-26T11:15:19;99960.00;;;12.05;62.24
54248;BME280;40161;39.768;2.722;2023-02-26T11:17:46;99943.88;;;11.60;63.33
54248;BME280;40161;39.768;2.722;2023-02-26T11:20:37;99926.59;;;11.63;62.29
54248;BME280;40161;39.768;2.722;2023-02-26T11:23:13;99959.59;;;11.96;63.37
54248;BME280;40161;39.768;2.722;2023-02-26T11:25:41;99940.34;;;12.03;61.44
54248;BME280;40161;39.768;2.722;2023-02-26T11:28:22;99948.63;;;11.88;60.84
54248;BME280;40161;39.768;2.722;2023-02-26T11:30:49;99936.03;;;12.02;61.67
54248;BME280;40161;39.768;2.722;2023-02-26T11:33:31;99951.31;;;12.21;60.91
54248;BME280;40161;39.768;2.722;2023-02-26T11:36:00;99944.28;;;12.13;59.94
54248;BME280;40161;39.768;2.722;2023-02-26T11:38:28;99935.22;;;12.19;60.76
54248;BME280;40161;39.768;2.722;2023-02-26T11:40:56;99935.63;;;12.10;61.68
54248;BME280;40161;39.768;2.722;2023-02-26T11:43:25;99930.13;;;12.07;61.95
54248;BME280;40161;39.768;2.722;2023-02-26T11:45:59;99928.94;;;12.19;62.27
54248;BME280;40161;39.768;2.722;2023-02-26T11:48:45;99910.47;;;12.23;60.84
54248;BME280;40161;39.768;2.722;2023-02-26T11:51:18;99921.44;;;12.30;60.64
54248;BME280;40161;39.768;2.722;2023-02-26T11:53:51;99928.94;;;12.26;61.12
54248;BME280;40161;39.768;2.722;2023-02-26T11:56:38;99915.53;;;12.42;60.12
54248;BME280;40161;39.768;2.722;2023-02-26T11:59:20;99899.00;;;12.46;59.08
54248;BME280;40161;39.768;2.722;2023-02-26T12:01:46;99878.91;;;12.56;59.73
54248;BME280;40161;39.768;2.722;2023-02-26T12:04:17;99898.44;;;12.79;59.36
54248;BME280;40161;39.768;2.722;2023-02-26T12:06:45;99885.00;;;12.96;58.52
54248;BME280;40161;39.768;2.722;2023-02-26T12:09:13;99892.34;;;13.17;59.31
54248;BME280;40161;39.768;2.722;2023-02-26T12:20:14;99890.78;;;12.31;59.97
54248;BME280;40161;39.768;2.722;2023-02-26T12:22:48;99897.03;;;12.43;59.88
54248;BME280;40161;39.768;2.722;2023-02-26T12:28:38;99875.84;;;12.36;60.91
54248;BME280;40161;39.768;2.722;2023-02-26T12:34:02;99859.31;;;12.43;59.24
54248;BME280;40161;39.768;2.722;2023-02-26T12:48:07;99863.53;;;12.62;60.01
54248;BME280;40161;39.768;2.722;2023-02-26T13:04:48;99851.13;;;12.11;63.06
54248;BME280;40161;39.768;2.722;2023-02-26T13:07:48;99844.88;;;12.00;63.24
54248;BME280;40161;39.768;2.722;2023-02-26T13:12:56;99833.91;;;11.89;63.68
54248;BME280;40161;39.768;2.722;2023-02-26T13:21:22;99830.03;;;11.54;66.03
54248;BME280;40161;39.768;2.722;2023-02-26T13:24:03;99845.31;;;11.70;65.57
54248;BME280;40161;39.768;2.722;2023-02-26T13:26:30;99830.03;;;11.54;64.89
54248;BME280;40161;39.768;2.722;2023-02-26T13:29:19;99841.03;;;11.47;65.48
54248;BME280;40161;39.768;2.722;2023-02-26T13:31:58;99833.94;;;11.57;63.96
54248;BME280;40161;39.768;2.722;2023-02-26T13:35:04;99834.31;;;11.77;62.74
54248;BME280;40161;39.768;2.722;2023-02-26T13:37:40;99811.97;;;11.64;62.74
54248;BME280;40161;39.768;2.722;2023-02-26T13:53:57;99821.78;;;11.54;65.42
54248;BME280;40161;39.768;2.722;2023-02-26T14:06:52;99826.88;;;11.49;64.20
54248;BME280;40161;39.768;2.722;2023-02-26T14:14:47;99834.34;;;11.41;65.56
54248;BME280;40161;39.768;2.722;2023-02-26T14:17:36;99838.28;;;11.40;64.49
54248;BME280;40161;39.768;2.722;2023-02-26T14:22:35;99830.03;;;11.36;63.94
54248;BME280;40161;39.768;2.722;2023-02-26T14:30:46;99848.47;;;11.50;63.31
54248;BME280;40161;39.768;2.722;2023-02-26T14:33:16;99850.03;;;11.40;61.11
54248;BME280;40161;39.768;2.722;2023-02-26T14:35:44;99854.75;;;11.36;61.06
54248;BME280;40161;39.768;2.722;2023-02-26T14:38:33;99829.63;;;11.16;61.01
54248;BME280;40161;39.768;2.722;2023-02-26T14:43:51;99860.25;;;11.33;61.50
54248;BME280;40161;39.768;2.722;2023-02-26T14:46:20;99853.94;;;11.18;63.50
54248;BME280;40161;39.768;2.722;2023-02-26T14:48:46;99846.88;;;11.10;63.82
54248;BME280;40161;39.768;2.722;2023-02-26T15:02:12;99868.47;;;11.72;62.00
54248;BME280;40161;39.768;2.722;2023-02-26T15:13:15;99862.59;;;11.74;64.65
54248;BME280;40161;39.768;2.722;2023-02-26T15:15:51;99870.84;;;11.74;64.38
54248;BME280;40161;39.768;2.722;2023-02-26T15:21:44;99857.50;;;11.51;63.97
54248;BME280;40161;39.768;2.722;2023-02-26T15:24:12;99879.47;;;11.58;63.12
54248;BME280;40161;39.768;2.722;2023-02-26T15:27:01;99871.63;;;11.38;63.96
54248;BME280;40161;39.768;2.722;2023-02-26T15:29:35;99873.16;;;11.07;65.39
54248;BME280;40161;39.768;2.722;2023-02-26T15:32:21;99883.78;;;11.34;65.29
54248;BME280;40161;39.768;2.722;2023-02-26T15:34:54;99888.47;;;11.12;65.01
54248;BME280;40161;39.768;2.722;2023-02-26T15:37:22;99869.25;;;11.05;65.68
54248;BME280;40161;39.768;2.722;2023-02-26T15:39:49;99852.75;;;10.98;66.27
54248;BME280;40161;39.768;2.722;2023-02-26T15:42:17;99855.88;;;10.85;66.41
54248;BME280;40161;39.768;2.722;2023-02-26T15:44:44;99874.75;;;11.08;66.25
54248;BME280;40161;39.768;2.722;2023-02-26T15:47:14;99883.38;;;11.25;65.66
54248;BME280;40161;39.768;2.722;2023-02-26T15:49:46;99867.28;;;10.98;64.99
54248;BME280;40161;39.768;2.722;2023-02-26T15:52:18;99888.88;;;11.14;64.72
54248;BME280;40161;39.768;2.722;2023-02-26T15:54:47;99881.03;;;11.20;65.09
54248;BME280;40161;39.768;2.722;2023-02-26T15:57:14;99889.69;;;11.25;64.40
54248;BME280;40161;39.768;2.722;2023-02-26T15:59:44;99862.16;;;10.89;64.28
54248;BME280;40161;39.768;2.722;2023-02-26T16:02:12;99888.50;;;11.23;63.86
54248;BME280;40161;39.768;2.722;2023-02-26T16:04:39;99898.69;;;11.22;64.42
54248;BME280;40161;39.768;2.722;2023-02-26T16:07:05;99892.44;;;11.25;64.08
54248;BME280;40161;39.768;2.722;2023-02-26T16:09:35;99904.97;;;11.23;64.54
54248;BME280;40161;39.768;2.722;2023-02-26T16:12:09;99899.84;;;11.25;63.75
54248;BME280;40161;39.768;2.722;2023-02-26T16:14:39;99909.28;;;11.24;64.30